ΕΜΥ, Εθνική Μετεωρολογική Υπηρεσία - Δελτία Καιρού, Προγνώσεις

ΑΕΡΟΝΑΥΤΙΛΙΑ

GREEK AIRPORTS CODES

LGNX 071350Z 36019G29KT 9999 FEW018 SCT025 13/10 Q1017 RMK BKN080=

EUROPEAN AIRPORTS CODES

LFPO 071330Z AUTO 09009KT 060V120 CAVOK 22/09 Q1026=